Wednesday, December 19, 2018, 1:26 AM EST
Back to Local

KRKD, Rockland, Knox County Regional Airport

Location: Owls Head, ME, United States Lat: 44.067
Local Time: 1:26 AM EST ( 6:26 GMT) Lon: -69.1
Time Zone: US/Eastern Elev: 55 ft

Show me the last for .
Show Decoded

2018-12-19 00:56 METAR KRKD 190556Z AUTO 29007G15KT 10SM CLR M07/M11 A2993 RMK AO2 SLP135
                 T10671111 11056 21078 51008 FZRANO =
2018-12-18 22:56 METAR KRKD 190356Z AUTO 29006KT 10SM CLR M07/M11 A2991 RMK AO2 SLP131 T10671111
                 FZRANO =
2018-12-18 21:56 METAR KRKD 190256Z AUTO 28009KT 10SM CLR M07/M11 A2990 RMK AO2 SLP128 T10671111
                 51017 FZRANO =
2018-12-18 20:56 METAR KRKD 190156Z AUTO 27008KT 10SM CLR M07/M11 A2989 RMK AO2 SLP124 T10721111
                 FZRANO =
2018-12-18 19:56 METAR KRKD 190056Z AUTO 26007KT 10SM CLR M06/M11 A2988 RMK AO2 SLP119 T10611111
                 FZRANO =
2018-12-18 18:56 METAR KRKD 182356Z AUTO 29011G17KT 10SM CLR M06/M11 A2985 RMK AO2 SLP110
                 T10561111 11028 21056 52022 FZRANO =
2018-12-18 17:56 METAR KRKD 182256Z AUTO 29011KT 10SM CLR M06/M11 A2983 RMK AO2 SLP103 T10561106
                 FZRANO =
2018-12-18 16:56 METAR KRKD 182156Z AUTO 30008KT 10SM CLR M05/M11 A2981 RMK AO2 SLP097 T10501106
                 FZRANO =
2018-12-18 15:56 METAR KRKD 182056Z AUTO 31007G16KT 10SM CLR M04/M11 A2979 RMK AO2 PK WND
                 29031/2026 SLP089 T10391106 53040 FZRANO =
2018-12-18 14:56 METAR KRKD 181956Z AUTO 30015G26KT 10SM CLR M03/M11 A2973 RMK AO2 PK WND
                 30031/1902 SLP071 T10331106 FZRANO =
2018-12-18 13:56 METAR KRKD 181856Z AUTO 30016G28KT 10SM CLR M03/M10 A2970 RMK AO2 PK WND
                 29031/1845 SLP059 T10331100 FZRANO =
2018-12-18 12:56 METAR KRKD 181756Z AUTO 32009G19KT 280V010 10SM CLR M03/M09 A2967 RMK AO2 SLP049
                 60000 T10281089 11028 21061 53008 FZRANO =
2018-12-18 11:56 METAR KRKD 181656Z AUTO 30013G22KT 270V330 10SM CLR M03/M09 A2966 RMK AO2 PK WND
                 30030/1636 SLP044 T10331094 FZRANO =
2018-12-18 10:56 METAR KRKD 181556Z AUTO 30014G22KT 10SM FEW090 M04/M09 A2965 RMK AO2 PK WND
                 30028/1515 SLP041 T10441094 FZRANO =
2018-12-18 09:56 METAR KRKD 181456Z AUTO 30015G22KT 270V360 10SM FEW085 M05/M10 A2965 RMK AO2 PK
                 WND 31026/1424 SLP041 60000 T10501100 51039 FZRANO =
2018-12-18 08:56 METAR KRKD 181356Z AUTO 30012G23KT 10SM CLR M06/M10 A2962 RMK AO2 PK WND
                 30026/1300 SLP032 T10561100 FZRANO =
2018-12-18 07:56 METAR KRKD 181256Z AUTO 30014G23KT 10SM OVC090 M06/M10 A2957 RMK AO2 PK WND
                 29029/1214 SNE1159 SLP016 P0000 T10611100 FZRANO =
2018-12-18 06:56 METAR KRKD 181156Z AUTO 29018G26KT 8SM -SN BKN090 M06/M09 A2953 RMK AO2 PK WND
                 28028/1129 SLP002 P0000 60000 70007 T10611089 10000 21061 51031 FZRANO =
2018-12-18 05:56 METAR KRKD 181056Z AUTO 29015G21KT 6SM -SN FEW019 OVC055 M06/M08 A2950 RMK AO2
                 PK WND 30028/1005 SLP992 P0000 T10561083 FZRANO =
2018-12-18 04:56 METAR KRKD 180956Z AUTO 29017G25KT 4SM -SN FEW017 BKN036 OVC043 M05/M08 A2947
                 RMK AO2 PK WND 28029/0931 SLP982 P0000 T10501078 FZRANO =
2018-12-18 03:56 METAR KRKD 180856Z AUTO 30017G29KT 3SM -SN OVC038 M04/M07 A2944 RMK AO2 PK WND
                 30029/0848 SLP970 P0000 60000 T10391067 53024 FZRANO =
2018-12-18 03:07 METAR KRKD 180807Z AUTO 29017G29KT 2 1/2SM -SN BR SCT015 SCT027 OVC035 M03/M05
                 A2942 RMK AO2 PK WND 29029/0802 VIS 1 3/4V4 P0000 FZRANO =
2018-12-18 03:04 METAR KRKD 180804Z AUTO 29016G29KT 3SM -SN BR SCT015 BKN027 OVC035 M03/M04 A2942
                 RMK AO2 PK WND 29029/0802 P0000 FZRANO =
2018-12-18 02:56 METAR KRKD 180756Z AUTO 29017G24KT 2 1/2SM -SN BR FEW015 BKN033 OVC039 M02/M04
                 A2941 RMK AO2 VIS 2V3 SLP962 P0000 T10221044 FZRANO =
2018-12-18 02:44 METAR KRKD 180744Z AUTO 29015G22KT 4SM -SN BR FEW015 BKN029 OVC037 M02/M04 A2941
                 RMK AO2 P0000 FZRANO =
2018-12-18 01:56 METAR KRKD 180656Z AUTO 30010G18KT 3SM -SN BR SCT013 OVC030 M01/M02 A2939 RMK
                 AO2 SLP953 P0000 T10111022 FZRANO =
2018-12-18 01:35 METAR KRKD 180635Z AUTO 29014G20KT 3SM -SN BR SCT011 SCT017 OVC030 M01/M02 A2938
                 RMK AO2 P0000 FZRANO =

Support USWX by starting your Amazon purchase here.